sensor_id;sensor_type;location;lat;lon;timestamp;temperature;humidity
33574;DHT22;20085;50.832;4.392;2022-10-16T00:01:16;16.60;99.90
33574;DHT22;20085;50.832;4.392;2022-10-16T00:03:44;16.60;99.90
33574;DHT22;20085;50.832;4.392;2022-10-16T00:06:10;16.50;99.90
33574;DHT22;20085;50.832;4.392;2022-10-16T00:08:37;16.50;99.90
33574;DHT22;20085;50.832;4.392;2022-10-16T00:11:11;16.60;99.90
33574;DHT22;20085;50.832;4.392;2022-10-16T00:13:39;16.60;99.90
33574;DHT22;20085;50.832;4.392;2022-10-16T00:16:05;16.50;99.90
33574;DHT22;20085;50.832;4.392;2022-10-16T00:18:31;16.50;99.90
33574;DHT22;20085;50.832;4.392;2022-10-16T00:21:06;16.40;99.90
33574;DHT22;20085;50.832;4.392;2022-10-16T00:23:31;16.40;99.90
33574;DHT22;20085;50.832;4.392;2022-10-16T00:26:00;16.40;99.90
33574;DHT22;20085;50.832;4.392;2022-10-16T00:28:26;16.50;99.90
33574;DHT22;20085;50.832;4.392;2022-10-16T00:30:52;16.40;99.90
33574;DHT22;20085;50.832;4.392;2022-10-16T00:33:17;16.40;99.90
33574;DHT22;20085;50.832;4.392;2022-10-16T00:35:43;16.40;99.90
33574;DHT22;20085;50.832;4.392;2022-10-16T00:38:09;16.40;99.90
33574;DHT22;20085;50.832;4.392;2022-10-16T00:40:38;16.40;99.90
33574;DHT22;20085;50.832;4.392;2022-10-16T00:43:53;16.40;99.90
33574;DHT22;20085;50.832;4.392;2022-10-16T00:46:03;16.40;99.90
33574;DHT22;20085;50.832;4.392;2022-10-16T00:48:28;16.40;99.90
33574;DHT22;20085;50.832;4.392;2022-10-16T00:50:56;16.30;99.90
33574;DHT22;20085;50.832;4.392;2022-10-16T00:53:23;16.30;99.90
33574;DHT22;20085;50.832;4.392;2022-10-16T00:55:50;16.30;99.90
33574;DHT22;20085;50.832;4.392;2022-10-16T00:58:15;16.30;99.90
33574;DHT22;20085;50.832;4.392;2022-10-16T01:00:41;16.30;99.90
33574;DHT22;20085;50.832;4.392;2022-10-16T01:03:33;16.30;99.90
33574;DHT22;20085;50.832;4.392;2022-10-16T01:11:22;16.30;99.90
33574;DHT22;20085;50.832;4.392;2022-10-16T01:13:54;16.30;99.90
33574;DHT22;20085;50.832;4.392;2022-10-16T01:16:25;16.30;99.90
33574;DHT22;20085;50.832;4.392;2022-10-16T01:19:17;16.20;99.90
33574;DHT22;20085;50.832;4.392;2022-10-16T01:21:47;16.20;99.90
33574;DHT22;20085;50.832;4.392;2022-10-16T01:24:38;16.20;99.90
33574;DHT22;20085;50.832;4.392;2022-10-16T01:27:25;16.20;99.90
33574;DHT22;20085;50.832;4.392;2022-10-16T01:32:40;16.20;99.90
33574;DHT22;20085;50.832;4.392;2022-10-16T01:35:19;16.20;99.90
33574;DHT22;20085;50.832;4.392;2022-10-16T01:37:51;16.20;99.90
33574;DHT22;20085;50.832;4.392;2022-10-16T01:40:20;16.10;99.90
33574;DHT22;20085;50.832;4.392;2022-10-16T01:43:01;16.10;99.90
33574;DHT22;20085;50.832;4.392;2022-10-16T01:45:29;16.10;99.90
33574;DHT22;20085;50.832;4.392;2022-10-16T01:47:59;16.10;99.90
33574;DHT22;20085;50.832;4.392;2022-10-16T01:50:26;16.10;99.90
33574;DHT22;20085;50.832;4.392;2022-10-16T01:52:54;16.20;99.90
33574;DHT22;20085;50.832;4.392;2022-10-16T01:55:33;16.20;99.90
33574;DHT22;20085;50.832;4.392;2022-10-16T01:58:02;16.20;99.90
33574;DHT22;20085;50.832;4.392;2022-10-16T02:00:29;16.20;99.90
33574;DHT22;20085;50.832;4.392;2022-10-16T02:02:57;16.10;99.90
33574;DHT22;20085;50.832;4.392;2022-10-16T02:05:32;16.10;99.90
33574;DHT22;20085;50.832;4.392;2022-10-16T02:07:59;16.00;99.90
33574;DHT22;20085;50.832;4.392;2022-10-16T02:10:25;16.10;99.90
33574;DHT22;20085;50.832;4.392;2022-10-16T02:13:01;16.10;99.90
33574;DHT22;20085;50.832;4.392;2022-10-16T02:15:28;16.10;99.90
33574;DHT22;20085;50.832;4.392;2022-10-16T02:17:54;16.20;99.90
33574;DHT22;20085;50.832;4.392;2022-10-16T02:20:26;16.10;99.90
33574;DHT22;20085;50.832;4.392;2022-10-16T02:22:54;16.10;99.90
33574;DHT22;20085;50.832;4.392;2022-10-16T02:25:30;16.00;99.90
33574;DHT22;20085;50.832;4.392;2022-10-16T02:28:06;15.90;99.90
33574;DHT22;20085;50.832;4.392;2022-10-16T02:30:38;16.00;99.90
33574;DHT22;20085;50.832;4.392;2022-10-16T02:33:08;15.90;99.90
33574;DHT22;20085;50.832;4.392;2022-10-16T02:35:36;15.90;99.90
33574;DHT22;20085;50.832;4.392;2022-10-16T02:38:02;15.90;99.90
33574;DHT22;20085;50.832;4.392;2022-10-16T02:40:28;15.90;99.90
33574;DHT22;20085;50.832;4.392;2022-10-16T02:42:55;15.90;99.90
33574;DHT22;20085;50.832;4.392;2022-10-16T02:45:21;15.90;99.90
33574;DHT22;20085;50.832;4.392;2022-10-16T02:47:47;16.00;99.90
33574;DHT22;20085;50.832;4.392;2022-10-16T02:50:13;16.00;99.90
33574;DHT22;20085;50.832;4.392;2022-10-16T02:52:39;16.00;99.90
33574;DHT22;20085;50.832;4.392;2022-10-16T02:55:05;16.00;99.90
33574;DHT22;20085;50.832;4.392;2022-10-16T02:57:31;16.00;99.90
33574;DHT22;20085;50.832;4.392;2022-10-16T02:59:57;16.00;99.90
33574;DHT22;20085;50.832;4.392;2022-10-16T03:02:23;16.00;99.90
33574;DHT22;20085;50.832;4.392;2022-10-16T03:04:48;16.00;99.90
33574;DHT22;20085;50.832;4.392;2022-10-16T03:07:14;16.00;99.90
33574;DHT22;20085;50.832;4.392;2022-10-16T03:09:39;16.10;99.90
33574;DHT22;20085;50.832;4.392;2022-10-16T03:12:05;16.00;99.90
33574;DHT22;20085;50.832;4.392;2022-10-16T03:14:31;16.00;99.90
33574;DHT22;20085;50.832;4.392;2022-10-16T03:16:56;16.00;99.90
33574;DHT22;20085;50.832;4.392;2022-10-16T03:19:22;16.10;99.90
33574;DHT22;20085;50.832;4.392;2022-10-16T03:21:48;16.00;99.90
33574;DHT22;20085;50.832;4.392;2022-10-16T03:24:13;15.90;99.90
33574;DHT22;20085;50.832;4.392;2022-10-16T03:26:39;15.90;99.90
33574;DHT22;20085;50.832;4.392;2022-10-16T03:29:05;15.90;99.90
33574;DHT22;20085;50.832;4.392;2022-10-16T03:31:30;15.90;99.90
33574;DHT22;20085;50.832;4.392;2022-10-16T03:33:56;15.90;99.90
33574;DHT22;20085;50.832;4.392;2022-10-16T03:36:22;15.90;99.90
33574;DHT22;20085;50.832;4.392;2022-10-16T03:38:47;15.90;99.90
33574;DHT22;20085;50.832;4.392;2022-10-16T03:41:13;15.90;99.90
33574;DHT22;20085;50.832;4.392;2022-10-16T03:43:39;15.90;99.90
33574;DHT22;20085;50.832;4.392;2022-10-16T03:46:05;15.90;99.90
33574;DHT22;20085;50.832;4.392;2022-10-16T03:48:30;15.90;99.90
33574;DHT22;20085;50.832;4.392;2022-10-16T03:50:57;15.90;99.90
33574;DHT22;20085;50.832;4.392;2022-10-16T03:53:23;16.00;99.90
33574;DHT22;20085;50.832;4.392;2022-10-16T03:55:49;16.10;99.90
33574;DHT22;20085;50.832;4.392;2022-10-16T03:58:14;16.00;99.90
33574;DHT22;20085;50.832;4.392;2022-10-16T04:00:44;16.00;99.90
33574;DHT22;20085;50.832;4.392;2022-10-16T04:03:10;16.00;99.90
33574;DHT22;20085;50.832;4.392;2022-10-16T04:05:36;15.90;99.90
33574;DHT22;20085;50.832;4.392;2022-10-16T04:08:02;16.00;99.90
33574;DHT22;20085;50.832;4.392;2022-10-16T04:10:28;15.90;99.90
33574;DHT22;20085;50.832;4.392;2022-10-16T04:12:54;16.00;99.90
33574;DHT22;20085;50.832;4.392;2022-10-16T04:15:23;15.90;99.90
33574;DHT22;20085;50.832;4.392;2022-10-16T04:17:50;16.00;99.90
33574;DHT22;20085;50.832;4.392;2022-10-16T04:20:16;15.90;99.90
33574;DHT22;20085;50.832;4.392;2022-10-16T04:22:41;15.90;99.90
33574;DHT22;20085;50.832;4.392;2022-10-16T04:25:07;15.90;99.90
33574;DHT22;20085;50.832;4.392;2022-10-16T04:27:33;15.90;99.90
33574;DHT22;20085;50.832;4.392;2022-10-16T04:29:59;16.00;99.90
33574;DHT22;20085;50.832;4.392;2022-10-16T04:32:26;15.90;99.90
33574;DHT22;20085;50.832;4.392;2022-10-16T04:34:52;15.90;99.90
33574;DHT22;20085;50.832;4.392;2022-10-16T04:37:18;15.90;99.90
33574;DHT22;20085;50.832;4.392;2022-10-16T04:39:44;15.90;99.90
33574;DHT22;20085;50.832;4.392;2022-10-16T04:42:10;15.90;99.90
33574;DHT22;20085;50.832;4.392;2022-10-16T04:44:36;15.90;99.90
33574;DHT22;20085;50.832;4.392;2022-10-16T04:47:01;15.90;99.90
33574;DHT22;20085;50.832;4.392;2022-10-16T04:49:27;15.90;99.90
33574;DHT22;20085;50.832;4.392;2022-10-16T04:51:53;15.80;99.90
33574;DHT22;20085;50.832;4.392;2022-10-16T04:54:19;15.90;99.90
33574;DHT22;20085;50.832;4.392;2022-10-16T04:56:44;15.90;99.90
33574;DHT22;20085;50.832;4.392;2022-10-16T04:59:14;15.80;99.90
33574;DHT22;20085;50.832;4.392;2022-10-16T05:01:40;15.80;99.90
33574;DHT22;20085;50.832;4.392;2022-10-16T05:04:05;15.90;99.90
33574;DHT22;20085;50.832;4.392;2022-10-16T05:06:31;15.90;99.90
33574;DHT22;20085;50.832;4.392;2022-10-16T05:08:57;15.80;99.90
33574;DHT22;20085;50.832;4.392;2022-10-16T05:11:22;15.70;99.90
33574;DHT22;20085;50.832;4.392;2022-10-16T05:13:48;15.70;99.90
33574;DHT22;20085;50.832;4.392;2022-10-16T05:16:13;15.70;99.90
33574;DHT22;20085;50.832;4.392;2022-10-16T05:18:39;15.70;99.90
33574;DHT22;20085;50.832;4.392;2022-10-16T05:21:05;15.60;99.90
33574;DHT22;20085;50.832;4.392;2022-10-16T05:23:31;15.60;99.90
33574;DHT22;20085;50.832;4.392;2022-10-16T05:25:58;15.60;99.90
33574;DHT22;20085;50.832;4.392;2022-10-16T05:28:28;15.60;99.90
33574;DHT22;20085;50.832;4.392;2022-10-16T05:30:56;15.70;99.90
33574;DHT22;20085;50.832;4.392;2022-10-16T05:33:23;15.70;99.90
33574;DHT22;20085;50.832;4.392;2022-10-16T05:35:48;15.70;99.90
33574;DHT22;20085;50.832;4.392;2022-10-16T05:38:15;15.70;99.90
33574;DHT22;20085;50.832;4.392;2022-10-16T05:40:41;15.80;99.90
33574;DHT22;20085;50.832;4.392;2022-10-16T05:43:07;15.70;99.90
33574;DHT22;20085;50.832;4.392;2022-10-16T05:45:32;15.70;99.90
33574;DHT22;20085;50.832;4.392;2022-10-16T05:47:59;15.70;99.90
33574;DHT22;20085;50.832;4.392;2022-10-16T05:50:25;15.70;99.90
33574;DHT22;20085;50.832;4.392;2022-10-16T05:52:51;15.60;99.90
33574;DHT22;20085;50.832;4.392;2022-10-16T05:55:16;15.60;99.90
33574;DHT22;20085;50.832;4.392;2022-10-16T05:57:42;15.60;99.90
33574;DHT22;20085;50.832;4.392;2022-10-16T06:00:08;15.60;99.90
33574;DHT22;20085;50.832;4.392;2022-10-16T06:02:34;15.60;99.90
33574;DHT22;20085;50.832;4.392;2022-10-16T06:04:59;15.60;99.90
33574;DHT22;20085;50.832;4.392;2022-10-16T06:07:25;15.60;99.90
33574;DHT22;20085;50.832;4.392;2022-10-16T06:09:51;15.60;99.90
33574;DHT22;20085;50.832;4.392;2022-10-16T06:12:17;15.50;99.90
33574;DHT22;20085;50.832;4.392;2022-10-16T06:14:44;15.50;99.90
33574;DHT22;20085;50.832;4.392;2022-10-16T06:17:10;15.50;99.90
33574;DHT22;20085;50.832;4.392;2022-10-16T06:19:35;15.50;99.90
33574;DHT22;20085;50.832;4.392;2022-10-16T06:22:01;15.50;99.90
33574;DHT22;20085;50.832;4.392;2022-10-16T06:24:28;15.40;99.90
33574;DHT22;20085;50.832;4.392;2022-10-16T06:26:53;15.50;99.90
33574;DHT22;20085;50.832;4.392;2022-10-16T06:29:19;15.40;99.90
33574;DHT22;20085;50.832;4.392;2022-10-16T06:31:44;15.40;99.90
33574;DHT22;20085;50.832;4.392;2022-10-16T06:34:10;15.40;99.90
33574;DHT22;20085;50.832;4.392;2022-10-16T06:36:37;15.50;99.90
33574;DHT22;20085;50.832;4.392;2022-10-16T06:39:04;15.50;99.90
33574;DHT22;20085;50.832;4.392;2022-10-16T06:41:30;15.50;99.90
33574;DHT22;20085;50.832;4.392;2022-10-16T06:43:56;15.60;99.90
33574;DHT22;20085;50.832;4.392;2022-10-16T06:46:23;15.60;99.90
33574;DHT22;20085;50.832;4.392;2022-10-16T06:48:49;15.60;99.90
33574;DHT22;20085;50.832;4.392;2022-10-16T06:51:19;15.50;99.90
33574;DHT22;20085;50.832;4.392;2022-10-16T06:53:48;15.60;99.90
33574;DHT22;20085;50.832;4.392;2022-10-16T06:56:22;15.60;99.90
33574;DHT22;20085;50.832;4.392;2022-10-16T06:58:49;15.60;99.90
33574;DHT22;20085;50.832;4.392;2022-10-16T07:01:16;15.60;99.90
33574;DHT22;20085;50.832;4.392;2022-10-16T07:03:43;15.60;99.90
33574;DHT22;20085;50.832;4.392;2022-10-16T07:06:13;15.70;99.90
33574;DHT22;20085;50.832;4.392;2022-10-16T07:08:40;15.70;99.90
33574;DHT22;20085;50.832;4.392;2022-10-16T07:11:08;15.70;99.90
33574;DHT22;20085;50.832;4.392;2022-10-16T07:13:35;15.70;99.90
33574;DHT22;20085;50.832;4.392;2022-10-16T07:16:21;15.70;99.90
33574;DHT22;20085;50.832;4.392;2022-10-16T07:18:47;15.70;99.90
33574;DHT22;20085;50.832;4.392;2022-10-16T07:21:16;15.70;99.90
33574;DHT22;20085;50.832;4.392;2022-10-16T07:23:42;15.70;99.90
33574;DHT22;20085;50.832;4.392;2022-10-16T07:26:09;15.60;99.90
33574;DHT22;20085;50.832;4.392;2022-10-16T07:28:35;15.60;99.90
33574;DHT22;20085;50.832;4.392;2022-10-16T07:31:06;15.70;99.90
33574;DHT22;20085;50.832;4.392;2022-10-16T07:33:34;15.70;99.90
33574;DHT22;20085;50.832;4.392;2022-10-16T07:36:00;15.70;99.90
33574;DHT22;20085;50.832;4.392;2022-10-16T07:38:26;15.70;99.90
33574;DHT22;20085;50.832;4.392;2022-10-16T07:41:00;15.70;99.90
33574;DHT22;20085;50.832;4.392;2022-10-16T07:43:26;15.70;99.90
33574;DHT22;20085;50.832;4.392;2022-10-16T07:45:53;15.80;99.90
33574;DHT22;20085;50.832;4.392;2022-10-16T07:48:19;15.90;99.90
33574;DHT22;20085;50.832;4.392;2022-10-16T07:50:45;15.80;99.90
33574;DHT22;20085;50.832;4.392;2022-10-16T07:53:11;15.80;99.90
33574;DHT22;20085;50.832;4.392;2022-10-16T07:55:37;15.90;99.90
33574;DHT22;20085;50.832;4.392;2022-10-16T07:58:03;15.70;99.90
33574;DHT22;20085;50.832;4.392;2022-10-16T08:00:28;15.80;99.90
33574;DHT22;20085;50.832;4.392;2022-10-16T08:02:54;15.80;99.90
33574;DHT22;20085;50.832;4.392;2022-10-16T08:05:20;15.80;99.90
33574;DHT22;20085;50.832;4.392;2022-10-16T08:07:49;15.70;99.90
33574;DHT22;20085;50.832;4.392;2022-10-16T08:10:17;15.80;99.90
33574;DHT22;20085;50.832;4.392;2022-10-16T08:12:43;15.80;99.90
33574;DHT22;20085;50.832;4.392;2022-10-16T08:15:09;15.90;99.90
33574;DHT22;20085;50.832;4.392;2022-10-16T08:17:35;15.90;99.90
33574;DHT22;20085;50.832;4.392;2022-10-16T08:20:00;15.90;99.90
33574;DHT22;20085;50.832;4.392;2022-10-16T08:22:27;15.80;99.90
33574;DHT22;20085;50.832;4.392;2022-10-16T08:24:52;15.90;99.90
33574;DHT22;20085;50.832;4.392;2022-10-16T08:27:18;15.90;99.90
33574;DHT22;20085;50.832;4.392;2022-10-16T08:29:44;15.90;99.90
33574;DHT22;20085;50.832;4.392;2022-10-16T08:32:09;15.90;99.90
33574;DHT22;20085;50.832;4.392;2022-10-16T08:34:35;15.90;99.90
33574;DHT22;20085;50.832;4.392;2022-10-16T08:37:00;16.00;99.90
33574;DHT22;20085;50.832;4.392;2022-10-16T08:39:26;16.00;99.90
33574;DHT22;20085;50.832;4.392;2022-10-16T08:47:26;16.10;99.90
33574;DHT22;20085;50.832;4.392;2022-10-16T08:50:10;16.10;99.90
33574;DHT22;20085;50.832;4.392;2022-10-16T08:52:39;16.10;99.90
33574;DHT22;20085;50.832;4.392;2022-10-16T08:55:06;16.20;99.90
33574;DHT22;20085;50.832;4.392;2022-10-16T08:57:32;16.30;99.90
33574;DHT22;20085;50.832;4.392;2022-10-16T09:00:11;16.40;99.90
33574;DHT22;20085;50.832;4.392;2022-10-16T09:03:04;16.30;99.90
33574;DHT22;20085;50.832;4.392;2022-10-16T09:05:48;16.40;99.90
33574;DHT22;20085;50.832;4.392;2022-10-16T09:08:25;16.40;99.90
33574;DHT22;20085;50.832;4.392;2022-10-16T09:14:03;16.40;99.90
33574;DHT22;20085;50.832;4.392;2022-10-16T09:16:43;16.40;99.90
33574;DHT22;20085;50.832;4.392;2022-10-16T09:21:41;16.50;99.90
33574;DHT22;20085;50.832;4.392;2022-10-16T09:24:19;16.60;99.90
33574;DHT22;20085;50.832;4.392;2022-10-16T09:26:46;16.60;99.90
33574;DHT22;20085;50.832;4.392;2022-10-16T09:29:16;16.60;99.90
33574;DHT22;20085;50.832;4.392;2022-10-16T09:31:43;16.60;99.90
33574;DHT22;20085;50.832;4.392;2022-10-16T09:34:32;16.70;99.90
33574;DHT22;20085;50.832;4.392;2022-10-16T09:37:00;16.90;99.90
33574;DHT22;20085;50.832;4.392;2022-10-16T09:39:26;16.90;99.90
33574;DHT22;20085;50.832;4.392;2022-10-16T09:41:52;16.90;99.90
33574;DHT22;20085;50.832;4.392;2022-10-16T09:44:29;17.00;99.90
33574;DHT22;20085;50.832;4.392;2022-10-16T09:47:03;17.10;99.90
33574;DHT22;20085;50.832;4.392;2022-10-16T09:49:29;17.10;99.90
33574;DHT22;20085;50.832;4.392;2022-10-16T09:52:05;17.20;99.90
33574;DHT22;20085;50.832;4.392;2022-10-16T09:54:36;17.20;99.90
33574;DHT22;20085;50.832;4.392;2022-10-16T09:57:06;17.20;99.90
33574;DHT22;20085;50.832;4.392;2022-10-16T09:59:33;17.30;99.90
33574;DHT22;20085;50.832;4.392;2022-10-16T10:02:04;17.30;99.90
33574;DHT22;20085;50.832;4.392;2022-10-16T10:04:48;17.30;99.90
33574;DHT22;20085;50.832;4.392;2022-10-16T10:09:52;17.40;99.90
33574;DHT22;20085;50.832;4.392;2022-10-16T10:12:21;17.40;99.90
33574;DHT22;20085;50.832;4.392;2022-10-16T10:14:50;17.50;99.90
33574;DHT22;20085;50.832;4.392;2022-10-16T10:17:22;17.50;99.90
33574;DHT22;20085;50.832;4.392;2022-10-16T10:19:51;17.50;99.90
33574;DHT22;20085;50.832;4.392;2022-10-16T10:22:29;17.50;99.90
33574;DHT22;20085;50.832;4.392;2022-10-16T10:25:07;17.60;99.90
33574;DHT22;20085;50.832;4.392;2022-10-16T10:33:46;17.70;99.90
33574;DHT22;20085;50.832;4.392;2022-10-16T10:52:51;17.80;99.90
33574;DHT22;20085;50.832;4.392;2022-10-16T11:01:07;17.90;99.90
33574;DHT22;20085;50.832;4.392;2022-10-16T11:04:03;17.80;99.90
33574;DHT22;20085;50.832;4.392;2022-10-16T11:06:51;17.80;99.90
33574;DHT22;20085;50.832;4.392;2022-10-16T11:09:25;17.80;99.90
33574;DHT22;20085;50.832;4.392;2022-10-16T11:12:00;17.80;99.90
33574;DHT22;20085;50.832;4.392;2022-10-16T11:14:31;17.90;99.90
33574;DHT22;20085;50.832;4.392;2022-10-16T11:17:25;18.00;99.90
33574;DHT22;20085;50.832;4.392;2022-10-16T11:30:44;18.10;99.90
33574;DHT22;20085;50.832;4.392;2022-10-16T11:36:04;18.20;99.90
33574;DHT22;20085;50.832;4.392;2022-10-16T11:47:27;18.50;99.90
33574;DHT22;20085;50.832;4.392;2022-10-16T11:50:04;18.60;99.90
33574;DHT22;20085;50.832;4.392;2022-10-16T11:53:04;18.60;99.90
33574;DHT22;20085;50.832;4.392;2022-10-16T11:55:40;18.50;99.90
33574;DHT22;20085;50.832;4.392;2022-10-16T12:03:29;18.80;99.30
33574;DHT22;20085;50.832;4.392;2022-10-16T12:06:23;18.80;99.40
33574;DHT22;20085;50.832;4.392;2022-10-16T12:08:52;18.80;99.30
33574;DHT22;20085;50.832;4.392;2022-10-16T12:11:34;18.90;99.20
33574;DHT22;20085;50.832;4.392;2022-10-16T12:16:33;19.10;99.10
33574;DHT22;20085;50.832;4.392;2022-10-16T12:19:16;19.20;99.00
33574;DHT22;20085;50.832;4.392;2022-10-16T12:21:43;19.20;98.90
33574;DHT22;20085;50.832;4.392;2022-10-16T12:24:24;19.20;98.70
33574;DHT22;20085;50.832;4.392;2022-10-16T12:26:53;19.20;98.60
33574;DHT22;20085;50.832;4.392;2022-10-16T12:31:55;19.20;98.30
33574;DHT22;20085;50.832;4.392;2022-10-16T12:34:42;19.30;98.10
33574;DHT22;20085;50.832;4.392;2022-10-16T12:37:35;19.40;98.00
33574;DHT22;20085;50.832;4.392;2022-10-16T12:40:26;19.50;97.70
33574;DHT22;20085;50.832;4.392;2022-10-16T12:42:52;19.50;97.70
33574;DHT22;20085;50.832;4.392;2022-10-16T12:45:28;19.60;97.70
33574;DHT22;20085;50.832;4.392;2022-10-16T12:47:55;19.60;97.30
33574;DHT22;20085;50.832;4.392;2022-10-16T12:50:34;19.60;97.40
33574;DHT22;20085;50.832;4.392;2022-10-16T12:53:02;19.60;97.40
33574;DHT22;20085;50.832;4.392;2022-10-16T12:55:44;19.70;97.40
33574;DHT22;20085;50.832;4.392;2022-10-16T12:58:26;19.70;97.50
33574;DHT22;20085;50.832;4.392;2022-10-16T13:00:59;19.60;97.60
33574;DHT22;20085;50.832;4.392;2022-10-16T13:03:53;19.60;97.50
33574;DHT22;20085;50.832;4.392;2022-10-16T13:06:48;19.60;97.40
33574;DHT22;20085;50.832;4.392;2022-10-16T13:12:19;19.70;97.40
33574;DHT22;20085;50.832;4.392;2022-10-16T13:17:42;19.70;97.40
33574;DHT22;20085;50.832;4.392;2022-10-16T13:23:05;19.80;97.30
33574;DHT22;20085;50.832;4.392;2022-10-16T13:28:33;19.80;97.80
33574;DHT22;20085;50.832;4.392;2022-10-16T13:31:00;19.80;97.90
33574;DHT22;20085;50.832;4.392;2022-10-16T13:33:38;19.80;97.90
33574;DHT22;20085;50.832;4.392;2022-10-16T13:36:05;19.90;97.90
33574;DHT22;20085;50.832;4.392;2022-10-16T13:38:34;19.90;98.00
33574;DHT22;20085;50.832;4.392;2022-10-16T13:41:02;20.00;97.90
33574;DHT22;20085;50.832;4.392;2022-10-16T13:43:44;20.00;97.50
33574;DHT22;20085;50.832;4.392;2022-10-16T13:46:16;20.00;97.40
33574;DHT22;20085;50.832;4.392;2022-10-16T13:48:42;20.00;97.50
33574;DHT22;20085;50.832;4.392;2022-10-16T13:51:16;20.00;97.20
33574;DHT22;20085;50.832;4.392;2022-10-16T13:53:42;20.00;97.10
33574;DHT22;20085;50.832;4.392;2022-10-16T13:56:16;20.00;96.90
33574;DHT22;20085;50.832;4.392;2022-10-16T13:58:43;20.00;96.60
33574;DHT22;20085;50.832;4.392;2022-10-16T14:01:20;20.00;96.30
33574;DHT22;20085;50.832;4.392;2022-10-16T14:03:48;20.00;96.40
33574;DHT22;20085;50.832;4.392;2022-10-16T14:06:17;20.00;96.20
33574;DHT22;20085;50.832;4.392;2022-10-16T14:11:23;20.00;96.20
33574;DHT22;20085;50.832;4.392;2022-10-16T14:13:50;19.90;96.20
33574;DHT22;20085;50.832;4.392;2022-10-16T14:16:27;19.90;96.30
33574;DHT22;20085;50.832;4.392;2022-10-16T14:19:01;19.80;96.50
33574;DHT22;20085;50.832;4.392;2022-10-16T14:21:27;19.80;96.60
33574;DHT22;20085;50.832;4.392;2022-10-16T14:23:54;19.80;96.70
33574;DHT22;20085;50.832;4.392;2022-10-16T14:26:22;19.80;96.80
33574;DHT22;20085;50.832;4.392;2022-10-16T14:29:00;19.80;96.90
33574;DHT22;20085;50.832;4.392;2022-10-16T14:31:32;19.80;97.00
33574;DHT22;20085;50.832;4.392;2022-10-16T14:33:59;19.90;97.00
33574;DHT22;20085;50.832;4.392;2022-10-16T14:36:27;19.90;97.00
33574;DHT22;20085;50.832;4.392;2022-10-16T14:39:06;19.80;97.10
33574;DHT22;20085;50.832;4.392;2022-10-16T14:41:45;19.90;97.30
33574;DHT22;20085;50.832;4.392;2022-10-16T14:44:12;19.80;97.10
33574;DHT22;20085;50.832;4.392;2022-10-16T14:46:41;19.90;96.90
33574;DHT22;20085;50.832;4.392;2022-10-16T14:51:36;19.90;97.20
33574;DHT22;20085;50.832;4.392;2022-10-16T14:54:03;19.90;97.10
33574;DHT22;20085;50.832;4.392;2022-10-16T14:56:57;19.90;97.00
33574;DHT22;20085;50.832;4.392;2022-10-16T14:59:37;19.90;97.00
33574;DHT22;20085;50.832;4.392;2022-10-16T15:02:25;19.90;97.00
33574;DHT22;20085;50.832;4.392;2022-10-16T15:04:52;19.90;97.20
33574;DHT22;20085;50.832;4.392;2022-10-16T15:07:18;19.90;97.00
33574;DHT22;20085;50.832;4.392;2022-10-16T15:09:43;19.90;97.00
33574;DHT22;20085;50.832;4.392;2022-10-16T15:12:09;19.80;97.10
33574;DHT22;20085;50.832;4.392;2022-10-16T15:14:35;19.80;97.10
33574;DHT22;20085;50.832;4.392;2022-10-16T15:17:00;19.80;97.10
33574;DHT22;20085;50.832;4.392;2022-10-16T15:19:26;19.80;97.30
33574;DHT22;20085;50.832;4.392;2022-10-16T15:21:52;19.80;97.40
33574;DHT22;20085;50.832;4.392;2022-10-16T15:24:18;19.80;97.40
33574;DHT22;20085;50.832;4.392;2022-10-16T15:26:43;19.80;97.40
33574;DHT22;20085;50.832;4.392;2022-10-16T15:29:12;19.80;97.40
33574;DHT22;20085;50.832;4.392;2022-10-16T15:31:38;19.80;97.50
33574;DHT22;20085;50.832;4.392;2022-10-16T15:34:04;19.80;97.60
33574;DHT22;20085;50.832;4.392;2022-10-16T15:36:35;19.70;97.70
33574;DHT22;20085;50.832;4.392;2022-10-16T15:39:20;19.60;97.80
33574;DHT22;20085;50.832;4.392;2022-10-16T15:41:47;19.60;98.00
33574;DHT22;20085;50.832;4.392;2022-10-16T15:44:19;19.60;98.10
33574;DHT22;20085;50.832;4.392;2022-10-16T15:46:46;19.60;98.10
33574;DHT22;20085;50.832;4.392;2022-10-16T15:49:12;19.60;98.20
33574;DHT22;20085;50.832;4.392;2022-10-16T15:51:39;19.60;98.20
33574;DHT22;20085;50.832;4.392;2022-10-16T15:54:05;19.60;98.40
33574;DHT22;20085;50.832;4.392;2022-10-16T15:56:31;19.50;98.60
33574;DHT22;20085;50.832;4.392;2022-10-16T15:58:59;19.40;98.90
33574;DHT22;20085;50.832;4.392;2022-10-16T16:01:25;19.40;99.40
33574;DHT22;20085;50.832;4.392;2022-10-16T16:03:54;19.30;99.30
33574;DHT22;20085;50.832;4.392;2022-10-16T16:06:19;19.20;99.50
33574;DHT22;20085;50.832;4.392;2022-10-16T16:08:45;19.20;99.50
33574;DHT22;20085;50.832;4.392;2022-10-16T16:11:12;19.20;99.70
33574;DHT22;20085;50.832;4.392;2022-10-16T16:13:38;19.10;99.90
33574;DHT22;20085;50.832;4.392;2022-10-16T16:16:09;19.10;99.90
33574;DHT22;20085;50.832;4.392;2022-10-16T16:18:35;19.10;99.90
33574;DHT22;20085;50.832;4.392;2022-10-16T16:21:01;19.10;99.90
33574;DHT22;20085;50.832;4.392;2022-10-16T16:23:27;19.10;99.90
33574;DHT22;20085;50.832;4.392;2022-10-16T16:26:13;19.10;99.90
33574;DHT22;20085;50.832;4.392;2022-10-16T16:28:40;19.20;99.90
33574;DHT22;20085;50.832;4.392;2022-10-16T16:31:06;19.20;99.90
33574;DHT22;20085;50.832;4.392;2022-10-16T16:33:32;19.10;99.90
33574;DHT22;20085;50.832;4.392;2022-10-16T16:35:59;19.10;99.90
33574;DHT22;20085;50.832;4.392;2022-10-16T16:38:26;19.10;99.90
33574;DHT22;20085;50.832;4.392;2022-10-16T16:40:52;19.10;99.90
33574;DHT22;20085;50.832;4.392;2022-10-16T16:43:18;19.10;99.90
33574;DHT22;20085;50.832;4.392;2022-10-16T16:45:44;19.00;99.90
33574;DHT22;20085;50.832;4.392;2022-10-16T16:48:09;19.00;99.90
33574;DHT22;20085;50.832;4.392;2022-10-16T16:50:38;19.00;99.90
33574;DHT22;20085;50.832;4.392;2022-10-16T16:53:04;18.90;99.90
33574;DHT22;20085;50.832;4.392;2022-10-16T16:55:29;18.90;99.90
33574;DHT22;20085;50.832;4.392;2022-10-16T16:57:55;18.90;99.90
33574;DHT22;20085;50.832;4.392;2022-10-16T17:00:22;18.90;99.90
33574;DHT22;20085;50.832;4.392;2022-10-16T17:02:49;19.00;99.90
33574;DHT22;20085;50.832;4.392;2022-10-16T17:05:15;18.90;99.90
33574;DHT22;20085;50.832;4.392;2022-10-16T17:07:40;19.00;99.90
33574;DHT22;20085;50.832;4.392;2022-10-16T17:10:07;19.00;99.90
33574;DHT22;20085;50.832;4.392;2022-10-16T17:12:33;19.10;99.90
33574;DHT22;20085;50.832;4.392;2022-10-16T17:14:59;19.10;99.90
33574;DHT22;20085;50.832;4.392;2022-10-16T17:17:24;19.10;99.90
33574;DHT22;20085;50.832;4.392;2022-10-16T17:19:50;19.20;99.90
33574;DHT22;20085;50.832;4.392;2022-10-16T17:22:17;19.10;99.90
33574;DHT22;20085;50.832;4.392;2022-10-16T17:24:43;19.10;99.90